Time;durP1;ratioP1;P1;durP2;ratioP2;P2;SDS_P1;SDS_P2;PMS_P1;PMS_P2;Temp;Humidity;BMP_temperature;BMP_pressure;BME280_temperature;BME280_humidity;BME280_pressure;Samples;Min_cycle;Max_cycle;Signal;HPM_P1;HPM_P2
2023/01/09 00:01:17;;;;;;;7.45;6.85;;;2.80;99.90;;;;;;5002131;28;20224;-68
2023/01/09 00:03:45;;;;;;;7.43;6.82;;;2.80;99.90;;;;;;5002098;28;20208;-69
2023/01/09 00:06:12;;;;;;;8.73;8.00;;;2.70;99.90;;;;;;5000413;28;20648;-68
2023/01/09 00:08:39;;;;;;;9.43;8.63;;;2.60;99.90;;;;;;4999721;28;20215;-69
2023/01/09 00:11:07;;;;;;;9.27;8.48;;;2.50;99.90;;;;;;5004808;28;20236;-68
2023/01/09 00:13:34;;;;;;;9.02;8.32;;;2.60;99.90;;;;;;5002107;28;20200;-68
2023/01/09 00:16:04;;;;;;;8.13;7.32;;;2.60;99.90;;;;;;5000719;28;20595;-68
2023/01/09 00:18:31;;;;;;;8.43;7.72;;;2.70;99.90;;;;;;5002482;28;20207;-68
2023/01/09 00:20:59;;;;;;;8.20;7.50;;;2.70;99.90;;;;;;5004211;28;21027;-68
2023/01/09 00:23:27;;;;;;;8.93;8.13;;;2.70;99.90;;;;;;5003524;28;20683;-68
2023/01/09 00:26:01;;;;;;;8.20;7.60;;;2.70;99.90;;;;;;5001985;28;20267;-68
2023/01/09 00:28:28;;;;;;;7.30;6.70;;;2.70;99.90;;;;;;4998690;28;20211;-67
2023/01/09 00:30:57;;;;;;;8.38;7.57;;;2.60;99.90;;;;;;5002504;28;20223;-68
2023/01/09 00:33:29;;;;;;;7.40;6.80;;;2.50;99.90;;;;;;4998774;28;20205;-68
2023/01/09 00:35:56;;;;;;;7.60;7.00;;;2.50;99.90;;;;;;5002508;28;20224;-68
2023/01/09 00:38:23;;;;;;;8.07;7.38;;;2.40;99.90;;;;;;5006463;28;20195;-68
2023/01/09 00:40:51;;;;;;;7.45;6.82;;;2.40;99.90;;;;;;5008586;28;20760;-68
2023/01/09 00:43:20;;;;;;;7.35;6.75;;;2.50;99.90;;;;;;4999808;28;20248;-68
2023/01/09 00:45:47;;;;;;;7.20;6.65;;;2.50;99.90;;;;;;4998317;28;20622;-68
2023/01/09 00:48:23;;;;;;;6.72;6.25;;;2.60;99.90;;;;;;5001198;28;20204;-68
2023/01/09 00:50:52;;;;;;;7.00;6.50;;;2.60;99.90;;;;;;5003653;28;20256;-68
2023/01/09 00:53:22;;;;;;;7.32;6.82;;;2.60;99.90;;;;;;5005151;28;20205;-68
2023/01/09 00:55:49;;;;;;;7.28;6.68;;;2.50;99.90;;;;;;4998138;28;20231;-68
2023/01/09 00:58:17;;;;;;;6.65;6.05;;;2.50;99.90;;;;;;5006427;28;20599;-68
2023/01/09 01:00:44;;;;;;;6.43;5.93;;;2.50;99.90;;;;;;5003122;28;20220;-68
2023/01/09 01:03:11;;;;;;;6.00;5.60;;;2.60;99.90;;;;;;5001834;28;20203;-68
2023/01/09 01:08:24;;;;;;;7.20;6.70;;;2.60;99.90;;;;;;5006357;28;20211;-68
2023/01/09 01:10:51;;;;;;;7.38;6.78;;;2.50;99.90;;;;;;5000881;28;20232;-68
2023/01/09 01:13:18;;;;;;;8.35;7.65;;;2.50;99.90;;;;;;4999287;28;20201;-68
2023/01/09 01:15:46;;;;;;;7.82;7.22;;;2.40;99.90;;;;;;5004368;28;20220;-68
2023/01/09 01:18:14;;;;;;;7.90;7.30;;;2.50;99.90;;;;;;4998192;28;20196;-68
2023/01/09 01:20:42;;;;;;;9.38;8.57;;;2.50;99.90;;;;;;5002860;28;20231;-68
2023/01/09 01:23:09;;;;;;;8.23;7.53;;;2.60;99.90;;;;;;5002656;28;20201;-68
2023/01/09 01:25:39;;;;;;;7.65;7.05;;;2.60;99.90;;;;;;5000298;28;20702;-68
2023/01/09 01:28:06;;;;;;;7.60;7.00;;;2.60;99.90;;;;;;4999623;28;20861;-68
2023/01/09 01:30:34;;;;;;;8.20;7.50;;;2.60;99.90;;;;;;5002787;28;20224;-68
2023/01/09 01:33:01;;;;;;;7.47;6.88;;;2.60;99.90;;;;;;5000732;28;20196;-68
2023/01/09 01:35:28;;;;;;;7.82;7.22;;;2.70;99.90;;;;;;5002035;28;20271;-67
2023/01/09 01:37:55;;;;;;;7.70;7.07;;;2.70;99.90;;;;;;5000479;28;20575;-70
2023/01/09 01:40:22;;;;;;;7.80;7.20;;;2.70;99.90;;;;;;5002640;28;20771;-68
2023/01/09 01:42:53;;;;;;;7.60;7.00;;;2.70;99.90;;;;;;4998936;28;20585;-68
2023/01/09 01:45:22;;;;;;;7.68;7.07;;;2.70;99.90;;;;;;4998632;28;20216;-68
2023/01/09 01:47:54;;;;;;;8.10;7.40;;;2.70;99.90;;;;;;4998991;28;20859;-68
2023/01/09 01:50:27;;;;;;;7.57;6.97;;;2.70;99.90;;;;;;5000230;28;20223;-68
2023/01/09 01:53:02;;;;;;;7.47;6.88;;;2.70;99.90;;;;;;5003894;28;20197;-68
2023/01/09 01:55:29;;;;;;;7.32;6.72;;;2.70;99.90;;;;;;4999310;28;20223;-68
2023/01/09 01:58:02;;;;;;;8.30;7.60;;;2.70;99.90;;;;;;5004553;28;20196;-68
2023/01/09 02:00:33;;;;;;;7.57;6.97;;;2.70;99.90;;;;;;5004431;28;20238;-68
2023/01/09 02:03:02;;;;;;;7.80;7.20;;;2.70;99.90;;;;;;5005804;28;20215;-68
2023/01/09 02:05:29;;;;;;;7.85;7.25;;;2.60;99.90;;;;;;5006818;28;20231;-68
2023/01/09 02:07:57;;;;;;;6.93;6.32;;;2.60;99.90;;;;;;5009343;28;20196;-68
2023/01/09 02:10:25;;;;;;;7.45;6.95;;;2.60;99.90;;;;;;5005859;28;20224;-68
2023/01/09 02:12:52;;;;;;;7.28;6.68;;;2.50;99.90;;;;;;5006792;28;20831;-68
2023/01/09 02:15:21;;;;;;;7.57;6.97;;;2.50;99.90;;;;;;5006230;28;20287;-68
2023/01/09 02:18:12;;;;;;;8.50;7.82;;;2.50;99.90;;;;;;5007950;28;20200;-68
2023/01/09 02:20:44;;;;;;;7.78;7.10;;;2.50;99.90;;;;;;5005632;28;20224;-69
2023/01/09 02:23:50;;;;;;;7.32;6.72;;;2.50;99.90;;;;;;5006391;28;20256;-68
2023/01/09 02:27:01;;;;;;;6.55;6.05;;;2.60;99.90;;;;;;4976958;28;20213;-68
2023/01/09 02:29:53;;;;;;;6.72;6.22;;;2.50;99.90;;;;;;5005788;28;20262;-68
2023/01/09 02:32:33;;;;;;;7.07;6.57;;;2.60;99.90;;;;;;5000762;28;20289;-68
2023/01/09 02:35:12;;;;;;;7.03;6.53;;;2.60;99.90;;;;;;5004936;28;20219;-69
2023/01/09 02:37:46;;;;;;;7.82;7.22;;;2.60;99.90;;;;;;5005639;28;20214;-69
2023/01/09 02:40:22;;;;;;;7.93;7.28;;;2.50;99.90;;;;;;4998901;28;20254;-68
2023/01/09 02:42:50;;;;;;;8.15;7.55;;;2.50;99.90;;;;;;4999786;28;20204;-68
2023/01/09 02:45:18;;;;;;;7.85;7.25;;;2.50;99.90;;;;;;5005604;28;20216;-68
2023/01/09 02:47:47;;;;;;;8.40;7.60;;;2.40;99.90;;;;;;5007548;28;20196;-68
2023/01/09 02:50:20;;;;;;;7.55;6.95;;;2.40;99.90;;;;;;5007282;28;20219;-68
2023/01/09 02:53:27;;;;;;;7.20;6.60;;;2.50;99.90;;;;;;5007196;28;20204;-69
2023/01/09 02:56:08;;;;;;;8.38;7.68;;;2.50;99.90;;;;;;4944262;28;20269;-68
2023/01/09 02:58:51;;;;;;;7.47;6.90;;;2.40;99.90;;;;;;4976252;23;20257;-74
2023/01/09 03:01:27;;;;;;;7.95;7.35;;;2.50;99.90;;;;;;4988436;28;20228;-74
2023/01/09 03:04:03;;;;;;;7.25;6.75;;;2.50;99.90;;;;;;4973347;28;20212;-74
2023/01/09 03:06:36;;;;;;;7.20;6.70;;;2.50;99.90;;;;;;4996615;28;20754;-73
2023/01/09 03:09:08;;;;;;;7.57;6.97;;;2.60;99.90;;;;;;4986762;28;20198;-74
2023/01/09 03:11:42;;;;;;;7.78;7.20;;;2.60;99.90;;;;;;4986605;28;20224;-74
2023/01/09 03:14:15;;;;;;;7.45;6.88;;;2.60;99.90;;;;;;4985892;28;20232;-75
2023/01/09 03:16:47;;;;;;;8.85;8.05;;;2.50;99.90;;;;;;4987490;28;20205;-74
2023/01/09 03:19:20;;;;;;;8.38;7.63;;;2.50;99.90;;;;;;4987426;28;20293;-74
2023/01/09 03:21:48;;;;;;;8.40;7.70;;;2.40;99.90;;;;;;4975635;28;20768;-74
2023/01/09 03:24:16;;;;;;;9.80;9.00;;;2.50;99.90;;;;;;4986818;28;20239;-74
2023/01/09 03:26:43;;;;;;;8.70;8.00;;;2.50;99.90;;;;;;4988804;28;20205;-74
2023/01/09 03:29:10;;;;;;;8.02;7.43;;;2.50;99.90;;;;;;4990335;28;20207;-75
2023/01/09 03:31:38;;;;;;;7.80;7.20;;;2.60;99.90;;;;;;4985908;28;20201;-74
2023/01/09 03:34:05;;;;;;;8.45;7.75;;;2.60;99.90;;;;;;4982618;28;20215;-73
2023/01/09 03:36:34;;;;;;;8.30;7.68;;;2.60;99.90;;;;;;4987376;28;20225;-74
2023/01/09 03:39:01;;;;;;;7.93;7.32;;;2.60;99.90;;;;;;4990473;28;20201;-74
2023/01/09 03:41:28;;;;;;;8.07;7.38;;;2.60;99.90;;;;;;4989742;28;20224;-74
2023/01/09 03:43:56;;;;;;;7.93;7.32;;;2.60;99.90;;;;;;4972779;28;20284;-73
2023/01/09 03:46:23;;;;;;;9.38;8.68;;;2.50;99.90;;;;;;4979381;28;20227;-73
2023/01/09 03:48:50;;;;;;;8.38;7.70;;;2.50;99.90;;;;;;4975447;28;20197;-74
2023/01/09 03:51:17;;;;;;;9.07;8.27;;;2.40;99.90;;;;;;4975050;28;20220;-73
2023/01/09 03:53:46;;;;;;;8.93;8.13;;;2.40;99.90;;;;;;4970001;28;20632;-74
2023/01/09 03:56:14;;;;;;;8.25;7.55;;;2.50;99.90;;;;;;4987194;28;20224;-73
2023/01/09 03:58:41;;;;;;;7.70;7.10;;;2.50;99.90;;;;;;4972390;28;20426;-73
2023/01/09 04:01:11;;;;;;;7.78;7.15;;;2.60;99.90;;;;;;4987153;28;20232;-74
2023/01/09 04:03:39;;;;;;;8.45;7.68;;;2.60;99.90;;;;;;4973552;28;20226;-74
2023/01/09 04:06:07;;;;;;;8.48;7.78;;;2.70;99.90;;;;;;4983017;28;20224;-73
2023/01/09 04:08:34;;;;;;;9.00;8.23;;;2.70;99.90;;;;;;4969679;28;20201;-74
2023/01/09 04:11:04;;;;;;;8.63;7.93;;;2.70;99.90;;;;;;4984697;28;20225;-73
2023/01/09 04:13:31;;;;;;;9.52;8.65;;;2.70;99.90;;;;;;4969064;28;20217;-73
2023/01/09 04:15:59;;;;;;;8.52;7.85;;;2.70;99.90;;;;;;4977615;28;20224;-74
2023/01/09 04:18:26;;;;;;;8.50;7.90;;;2.70;99.90;;;;;;4984900;28;20201;-74
2023/01/09 04:20:53;;;;;;;7.60;6.95;;;2.70;99.90;;;;;;4989284;28;20221;-74
2023/01/09 04:23:21;;;;;;;7.80;7.20;;;2.70;99.90;;;;;;5002355;28;20764;-73
2023/01/09 04:25:48;;;;;;;7.68;7.07;;;2.70;99.90;;;;;;4985007;28;20569;-74
2023/01/09 04:28:16;;;;;;;8.52;7.82;;;2.70;99.90;;;;;;4985209;28;20667;-74
2023/01/09 04:30:44;;;;;;;7.82;7.22;;;2.70;99.90;;;;;;4984465;28;20213;-74
2023/01/09 04:33:11;;;;;;;7.30;6.80;;;2.80;99.90;;;;;;4986097;28;20200;-74
2023/01/09 04:35:39;;;;;;;7.45;6.95;;;2.80;99.90;;;;;;4985393;28;20224;-73
2023/01/09 04:38:06;;;;;;;8.20;7.60;;;2.80;99.90;;;;;;4984654;28;20862;-73
2023/01/09 04:40:33;;;;;;;8.73;8.02;;;2.70;99.90;;;;;;4989867;28;20232;-73
2023/01/09 04:43:00;;;;;;;8.73;8.02;;;2.70;99.90;;;;;;4985195;28;20539;-73
2023/01/09 04:45:29;;;;;;;8.43;7.82;;;2.80;99.90;;;;;;4972410;28;20224;-74
2023/01/09 04:47:57;;;;;;;8.20;7.53;;;2.80;99.90;;;;;;4988559;28;20197;-74
2023/01/09 04:50:24;;;;;;;8.05;7.45;;;2.70;99.90;;;;;;4986928;28;20282;-73
2023/01/09 04:52:51;;;;;;;8.32;7.72;;;2.70;99.90;;;;;;4987703;28;20201;-73
2023/01/09 04:55:20;;;;;;;7.97;7.38;;;2.70;99.90;;;;;;4984098;28;20287;-73
2023/01/09 04:57:47;;;;;;;8.35;7.60;;;2.80;99.90;;;;;;4985132;28;20210;-74
2023/01/09 05:00:15;;;;;;;7.68;6.97;;;2.70;99.90;;;;;;4966512;28;20276;-73
2023/01/09 05:02:44;;;;;;;7.68;7.18;;;2.70;99.90;;;;;;4985660;28;20561;-74
2023/01/09 05:05:11;;;;;;;8.38;7.65;;;2.60;99.90;;;;;;4985510;28;20279;-74
2023/01/09 05:07:38;;;;;;;28.73;10.00;;;2.50;99.90;;;;;;4971078;28;20655;-74
2023/01/09 05:10:07;;;;;;;10.90;8.38;;;2.50;99.90;;;;;;4981801;28;20232;-73
2023/01/09 05:12:35;;;;;;;14.18;8.15;;;2.50;99.90;;;;;;4989470;28;20204;-73
2023/01/09 05:15:02;;;;;;;8.30;7.70;;;2.40;99.90;;;;;;4978618;28;20275;-73
2023/01/09 05:17:30;;;;;;;8.45;7.82;;;2.30;99.90;;;;;;4956518;28;20192;-73
2023/01/09 05:19:59;;;;;;;8.20;7.53;;;2.30;99.90;;;;;;4968419;28;20248;-74
2023/01/09 05:22:26;;;;;;;7.50;6.97;;;2.40;99.90;;;;;;4963701;28;20220;-73
2023/01/09 05:24:54;;;;;;;7.30;6.70;;;2.40;99.90;;;;;;4986309;28;20221;-73
2023/01/09 05:27:21;;;;;;;8.73;8.02;;;2.50;99.90;;;;;;4965029;28;20202;-73
2023/01/09 05:29:48;;;;;;;8.18;7.47;;;2.50;99.90;;;;;;4984353;28;20518;-73
2023/01/09 05:32:15;;;;;;;7.78;7.18;;;2.50;99.90;;;;;;4982760;28;20344;-74
2023/01/09 05:34:43;;;;;;;7.40;6.80;;;2.60;99.90;;;;;;4985119;28;20227;-72
2023/01/09 05:37:11;;;;;;;7.65;7.07;;;2.70;99.90;;;;;;4981753;28;20681;-73
2023/01/09 05:39:39;;;;;;;6.97;6.47;;;2.70;99.90;;;;;;4989889;28;20236;-73
2023/01/09 05:42:06;;;;;;;6.82;6.32;;;2.70;99.90;;;;;;4985014;28;20574;-74
2023/01/09 05:44:33;;;;;;;8.30;7.70;;;2.80;99.90;;;;;;4967877;28;20224;-74
2023/01/09 05:47:00;;;;;;;8.95;8.25;;;2.80;99.90;;;;;;4981791;28;20252;-74
2023/01/09 05:49:28;;;;;;;8.05;7.43;;;2.80;99.90;;;;;;4964707;28;20201;-74
2023/01/09 05:51:55;;;;;;;8.68;8.05;;;2.80;99.90;;;;;;4962553;28;20223;-73
2023/01/09 05:54:24;;;;;;;8.00;7.40;;;2.80;99.90;;;;;;4974844;28;20233;-73
2023/01/09 05:56:51;;;;;;;8.60;7.95;;;2.70;99.90;;;;;;4981178;28;20200;-73
2023/01/09 05:59:19;;;;;;;9.43;8.70;;;2.70;99.90;;;;;;4979523;28;20686;-74
2023/01/09 06:01:47;;;;;;;8.15;7.53;;;2.60;99.90;;;;;;4979070;28;20217;-73
2023/01/09 06:04:14;;;;;;;8.23;7.55;;;2.60;99.90;;;;;;4965660;28;20233;-73
2023/01/09 06:06:41;;;;;;;8.32;7.63;;;2.50;99.90;;;;;;4976483;28;20574;-73
2023/01/09 06:09:09;;;;;;;8.77;8.07;;;2.50;99.90;;;;;;4979560;28;20271;-73
2023/01/09 06:11:39;;;;;;;8.15;7.55;;;2.50;99.90;;;;;;4949551;28;20225;-73
2023/01/09 06:14:07;;;;;;;9.80;9.00;;;2.50;99.90;;;;;;4974727;28;20225;-73
2023/01/09 06:16:34;;;;;;;8.52;7.82;;;2.60;99.90;;;;;;4978654;28;20213;-74
2023/01/09 06:19:01;;;;;;;8.15;7.55;;;2.60;99.90;;;;;;4974455;28;20212;-73
2023/01/09 06:21:31;;;;;;;7.68;7.10;;;2.60;99.90;;;;;;4976221;28;20251;-73
2023/01/09 06:23:59;;;;;;;7.68;7.07;;;2.70;99.90;;;;;;4983012;28;20248;-73
2023/01/09 06:26:27;;;;;;;8.07;7.47;;;2.70;99.90;;;;;;4978020;28;20734;-73
2023/01/09 06:28:56;;;;;;;8.25;7.65;;;2.70;99.90;;;;;;4976622;28;20666;-73
2023/01/09 06:31:23;;;;;;;8.15;7.55;;;2.70;99.90;;;;;;4973575;28;20298;-73
2023/01/09 06:33:51;;;;;;;8.32;7.63;;;2.80;99.90;;;;;;4963453;28;20749;-74
2023/01/09 06:36:18;;;;;;;7.82;7.22;;;2.80;99.90;;;;;;4981216;28;20221;-74
2023/01/09 06:38:46;;;;;;;8.05;7.45;;;2.90;99.90;;;;;;4975479;28;20205;-73
2023/01/09 06:41:13;;;;;;;9.80;9.02;;;2.90;99.90;;;;;;4960401;28;20233;-73
2023/01/09 06:43:40;;;;;;;8.55;7.95;;;2.90;99.90;;;;;;4976809;28;20240;-73
2023/01/09 06:46:09;;;;;;;8.63;7.93;;;2.70;99.90;;;;;;4986335;28;20220;-74
2023/01/09 06:48:37;;;;;;;8.75;8.10;;;2.70;99.90;;;;;;4981827;28;20204;-75
2023/01/09 06:51:04;;;;;;;9.30;8.45;;;2.70;99.90;;;;;;4976851;28;20224;-73
2023/01/09 06:53:33;;;;;;;8.55;7.85;;;2.70;99.90;;;;;;4967712;28;20287;-75
2023/01/09 06:56:01;;;;;;;8.05;7.38;;;2.70;99.90;;;;;;4976540;28;20286;-73
2023/01/09 06:58:29;;;;;;;8.40;7.70;;;2.70;99.90;;;;;;4984888;28;20414;-73
2023/01/09 07:00:56;;;;;;;7.05;6.55;;;2.80;99.90;;;;;;4978518;28;20469;-74
2023/01/09 07:03:25;;;;;;;8.23;7.63;;;2.90;99.90;;;;;;4975869;28;20221;-73
2023/01/09 07:05:53;;;;;;;8.05;7.35;;;2.90;99.90;;;;;;4980044;28;20212;-75
2023/01/09 07:08:20;;;;;;;8.07;7.40;;;2.90;99.90;;;;;;4979696;28;20464;-74
2023/01/09 07:10:47;;;;;;;7.20;6.70;;;2.90;99.90;;;;;;4980713;28;20248;-74
2023/01/09 07:13:14;;;;;;;7.93;7.32;;;2.90;99.90;;;;;;4981182;28;20220;-73
2023/01/09 07:15:41;;;;;;;7.03;6.53;;;2.90;99.90;;;;;;4981260;28;20221;-74
2023/01/09 07:18:09;;;;;;;7.18;6.63;;;2.80;99.90;;;;;;4967747;28;20221;-73
2023/01/09 07:20:40;;;;;;;7.60;7.00;;;2.80;99.90;;;;;;4966563;28;20224;-74
2023/01/09 07:23:07;;;;;;;7.38;6.88;;;2.80;99.90;;;;;;4985805;28;20247;-73
2023/01/09 07:25:34;;;;;;;7.88;7.28;;;2.90;99.90;;;;;;4980049;28;20228;-73
2023/01/09 07:28:01;;;;;;;7.70;7.10;;;2.80;99.90;;;;;;4985229;28;20208;-73
2023/01/09 07:30:29;;;;;;;7.07;6.57;;;2.90;99.90;;;;;;4984472;28;20225;-74
2023/01/09 07:32:56;;;;;;;7.90;7.30;;;2.90;99.90;;;;;;4972482;28;20193;-73
2023/01/09 07:35:24;;;;;;;7.97;7.28;;;2.90;99.90;;;;;;4980137;28;20221;-73
2023/01/09 07:37:52;;;;;;;36.85;10.40;;;2.90;99.90;;;;;;4982655;28;20201;-74
2023/01/09 07:40:20;;;;;;;17.20;9.82;;;2.90;99.90;;;;;;4978578;28;20271;-73
2023/01/09 07:42:47;;;;;;;10.15;9.13;;;2.90;99.90;;;;;;4981274;28;20217;-73
2023/01/09 07:45:14;;;;;;;10.20;9.40;;;2.80;99.90;;;;;;4981061;28;20224;-75
2023/01/09 07:47:42;;;;;;;10.30;9.45;;;2.80;99.90;;;;;;4961087;28;20300;-73
2023/01/09 07:50:10;;;;;;;8.70;8.00;;;2.90;99.90;;;;;;4982083;28;20312;-73
2023/01/09 07:52:38;;;;;;;8.93;8.23;;;2.90;99.90;;;;;;4982366;28;20295;-73
2023/01/09 07:55:09;;;;;;;7.90;7.32;;;3.00;99.90;;;;;;4986202;28;20224;-73
2023/01/09 07:57:36;;;;;;;7.95;7.35;;;3.00;99.90;;;;;;4982406;28;20208;-73
2023/01/09 08:00:09;;;;;;;7.82;7.22;;;3.20;99.90;;;;;;4980379;28;20225;-75
2023/01/09 08:02:37;;;;;;;7.78;7.18;;;3.20;99.90;;;;;;4978863;28;20217;-73
2023/01/09 08:05:05;;;;;;;14.45;12.98;;;3.30;99.90;;;;;;4984936;28;20228;-73
2023/01/09 08:07:32;;;;;;;12.52;11.43;;;3.20;99.90;;;;;;4981945;28;20670;-73
2023/01/09 08:09:59;;;;;;;11.60;10.60;;;3.20;99.90;;;;;;4983496;28;20224;-73
2023/01/09 08:12:28;;;;;;;11.48;10.48;;;3.10;99.90;;;;;;4990385;28;20407;-74
2023/01/09 08:14:55;;;;;;;11.10;10.18;;;3.10;99.90;;;;;;4991053;28;20660;-73
2023/01/09 08:17:22;;;;;;;10.23;9.32;;;3.20;99.90;;;;;;4978924;28;20204;-73
2023/01/09 08:19:50;;;;;;;11.80;10.73;;;3.20;99.90;;;;;;4980439;28;20231;-74
2023/01/09 08:22:18;;;;;;;9.13;8.38;;;3.40;99.90;;;;;;4980468;28;20227;-75
2023/01/09 08:24:45;;;;;;;9.07;8.27;;;3.40;99.90;;;;;;4959592;28;20226;-75
2023/01/09 08:27:12;;;;;;;10.38;9.48;;;3.50;99.90;;;;;;4964640;28;20217;-75
2023/01/09 08:29:41;;;;;;;13.40;10.18;;;3.50;99.90;;;;;;4978249;28;20291;-75
2023/01/09 08:32:09;;;;;;;11.82;10.07;;;3.50;99.90;;;;;;4979575;28;20196;-74
2023/01/09 08:34:36;;;;;;;85.88;14.20;;;3.80;99.90;;;;;;4986253;28;20633;-78
2023/01/09 08:37:04;;;;;;;10.60;9.73;;;4.00;99.90;;;;;;4987249;28;20584;-77
2023/01/09 08:39:32;;;;;;;33.58;12.07;;;3.90;99.90;;;;;;4980027;28;20259;-76
2023/01/09 08:47:32;;;;;;;10.00;9.20;;;3.50;99.90;;;;;;4977208;28;20423;-76
2023/01/09 08:50:00;;;;;;;9.80;9.07;;;3.40;99.90;;;;;;4978738;28;20229;-76
2023/01/09 08:52:29;;;;;;;9.82;9.02;;;3.40;99.90;;;;;;4979315;28;20674;-76
2023/01/09 08:54:57;;;;;;;8.57;7.90;;;3.40;99.90;;;;;;4979039;28;20834;-77
2023/01/09 08:57:25;;;;;;;9.60;8.80;;;3.50;99.90;;;;;;4980036;28;20604;-77
2023/01/09 08:59:53;;;;;;;9.88;9.07;;;3.50;99.90;;;;;;4978434;28;20307;-76
2023/01/09 09:02:21;;;;;;;9.65;8.85;;;3.60;99.90;;;;;;4984869;28;20660;-77
2023/01/09 09:04:51;;;;;;;10.48;9.52;;;3.60;99.90;;;;;;4964713;28;20229;-76
2023/01/09 09:07:25;;;;;;;43.20;11.65;;;3.60;99.90;;;;;;4983054;28;20590;-76
2023/01/09 09:09:53;;;;;;;10.55;9.68;;;3.60;99.90;;;;;;4967225;28;20710;-77
2023/01/09 09:12:21;;;;;;;9.80;9.05;;;3.60;99.90;;;;;;4962420;28;20276;-76
2023/01/09 09:17:35;;;;;;;10.30;9.40;;;3.40;99.90;;;;;;4979561;28;20207;-76
2023/01/09 09:20:04;;;;;;;8.75;8.05;;;3.40;99.90;;;;;;4981579;28;20237;-77
2023/01/09 09:22:32;;;;;;;7.88;7.28;;;3.50;99.90;;;;;;4980441;28;20218;-77
2023/01/09 09:24:59;;;;;;;9.07;8.38;;;3.60;99.90;;;;;;4965585;28;20233;-76
2023/01/09 09:27:27;;;;;;;8.98;8.23;;;3.70;99.90;;;;;;4951035;28;20812;-76
2023/01/09 09:29:55;;;;;;;8.00;7.40;;;3.80;99.90;;;;;;4998276;28;20223;-77
2023/01/09 09:32:22;;;;;;;7.22;6.72;;;3.80;99.90;;;;;;4972678;28;20197;-76
2023/01/09 09:34:51;;;;;;;13.40;7.03;;;3.80;99.90;;;;;;4980889;28;20228;-77
2023/01/09 09:37:18;;;;;;;148.77;16.85;;;3.90;99.90;;;;;;4964460;28;20492;-76
2023/01/09 09:39:46;;;;;;;10.50;9.60;;;3.80;99.90;;;;;;4982022;28;20368;-77
2023/01/09 09:45:30;;;;;;;46.33;11.95;;;3.70;99.90;;;;;;4977841;28;20268;-77
2023/01/09 09:48:07;;;;;;;52.15;10.82;;;3.60;99.90;;;;;;4967203;28;20717;-76
2023/01/09 09:50:52;;;;;;;121.78;16.52;;;3.50;99.90;;;;;;4977370;28;20232;-76
2023/01/09 09:53:26;;;;;;;10.23;9.30;;;3.40;99.90;;;;;;4984708;28;20223;-77
2023/01/09 09:55:56;;;;;;;9.15;8.40;;;3.40;99.90;;;;;;4962452;28;20283;-76
2023/01/09 09:58:28;;;;;;;7.63;7.00;;;3.40;99.90;;;;;;4978229;28;20848;-77
2023/01/09 10:00:58;;;;;;;6.50;6.00;;;3.50;99.90;;;;;;4980242;28;20242;-76
2023/01/09 10:03:31;;;;;;;5.80;5.40;;;3.60;99.90;;;;;;4959990;28;20225;-76
2023/01/09 10:06:06;;;;;;;5.63;5.22;;;3.80;99.90;;;;;;4967996;28;20224;-76
2023/01/09 10:08:43;;;;;;;6.50;6.00;;;3.90;99.90;;;;;;4976281;28;20674;-77
2023/01/09 10:11:17;;;;;;;5.00;4.70;;;3.90;99.90;;;;;;4978507;28;20233;-76
2023/01/09 10:16:41;;;;;;;5.03;4.72;;;4.00;99.90;;;;;;4963558;28;20228;-77
2023/01/09 10:19:28;;;;;;;4.43;4.18;;;4.10;99.90;;;;;;4963581;28;20589;-77
2023/01/09 10:22:08;;;;;;;4.15;3.85;;;4.20;99.90;;;;;;4980974;28;20193;-77
2023/01/09 10:24:49;;;;;;;4.22;3.90;;;4.20;99.90;;;;;;4979505;28;20745;-76
2023/01/09 10:27:28;;;;;;;3.67;3.47;;;4.30;99.90;;;;;;4985384;28;20212;-76
2023/01/09 10:30:04;;;;;;;3.25;3.10;;;4.30;99.90;;;;;;4982220;28;20710;-77
2023/01/09 10:32:46;;;;;;;3.45;3.33;;;4.40;99.90;;;;;;4971771;28;20196;-76
2023/01/09 10:35:47;;;;;;;664.03;32.40;;;4.40;99.90;;;;;;4985609;28;20612;-76
2023/01/09 10:38:20;;;;;;;490.98;28.02;;;4.40;99.90;;;;;;4983254;28;20223;-76
2023/01/09 10:40:52;;;;;;;43.95;10.27;;;4.00;99.90;;;;;;4979094;28;20221;-76
2023/01/09 10:43:29;;;;;;;10.82;9.93;;;3.80;99.90;;;;;;4967613;28;20213;-76
2023/01/09 10:46:02;;;;;;;53.75;13.18;;;3.60;99.90;;;;;;4986459;28;20760;-77
2023/01/09 10:48:33;;;;;;;84.45;12.98;;;3.60;99.90;;;;;;4996145;28;20700;-76
2023/01/09 10:51:00;;;;;;;12.75;11.40;;;3.50;99.90;;;;;;4971076;28;20795;-76
2023/01/09 10:53:35;;;;;;;31.70;14.15;;;3.50;99.90;;;;;;4975892;28;20221;-77
2023/01/09 10:56:08;;;;;;;34.95;13.48;;;3.50;99.90;;;;;;4954446;28;20694;-77
2023/01/09 10:58:35;;;;;;;17.27;11.48;;;3.60;99.90;;;;;;4965636;28;20201;-76
2023/01/09 11:01:03;;;;;;;19.15;11.10;;;3.70;99.90;;;;;;4981459;28;20228;-77
2023/01/09 11:03:31;;;;;;;23.20;11.30;;;3.70;99.90;;;;;;4983684;28;20224;-76
2023/01/09 11:05:59;;;;;;;19.95;11.38;;;3.70;99.90;;;;;;4981928;28;20216;-76
2023/01/09 11:08:34;;;;;;;14.27;11.55;;;3.70;99.90;;;;;;4969798;28;20672;-76
2023/01/09 11:11:02;;;;;;;18.52;15.32;;;3.70;99.90;;;;;;4978809;28;20767;-76
2023/01/09 11:13:32;;;;;;;12.65;11.57;;;3.80;99.90;;;;;;4982069;28;20226;-77
2023/01/09 11:16:09;;;;;;;12.55;11.45;;;3.80;99.90;;;;;;4981710;28;20229;-76
2023/01/09 11:18:39;;;;;;;10.93;9.98;;;3.90;99.90;;;;;;4980106;28;20225;-76
2023/01/09 11:21:15;;;;;;;11.70;10.73;;;4.00;99.90;;;;;;4981813;28;20224;-76
2023/01/09 11:23:43;;;;;;;11.15;10.23;;;4.20;99.90;;;;;;4978410;28;20217;-76
2023/01/09 11:26:24;;;;;;;10.10;9.30;;;4.20;99.90;;;;;;4985460;28;20878;-76
2023/01/09 11:29:13;;;;;;;9.98;9.18;;;4.20;99.90;;;;;;4985339;28;20282;-76
2023/01/09 11:31:41;;;;;;;12.45;11.40;;;4.20;99.90;;;;;;4965931;28;20225;-76
2023/01/09 11:34:16;;;;;;;9.77;9.00;;;4.20;99.90;;;;;;4963558;28;20682;-76
2023/01/09 11:36:44;;;;;;;8.98;8.18;;;4.20;99.90;;;;;;4969808;28;20213;-76
2023/01/09 11:39:23;;;;;;;8.27;7.57;;;4.30;99.90;;;;;;4953437;28;20492;-76
2023/01/09 11:41:55;;;;;;;8.27;7.68;;;4.30;99.90;;;;;;4984723;28;20288;-76
2023/01/09 11:44:23;;;;;;;8.10;7.50;;;4.30;99.90;;;;;;4970769;28;20853;-76
2023/01/09 11:46:50;;;;;;;8.18;7.57;;;4.40;99.90;;;;;;4983823;28;20204;-76
2023/01/09 11:49:24;;;;;;;8.48;7.78;;;4.40;99.90;;;;;;4981639;28;20296;-76
2023/01/09 11:52:46;;;;;;;8.30;7.60;;;4.50;99.90;;;;;;4977834;28;20228;-76
2023/01/09 11:55:19;;;;;;;9.00;8.30;;;4.50;99.90;;;;;;4978763;28;20225;-76
2023/01/09 11:57:49;;;;;;;7.47;6.88;;;4.60;99.90;;;;;;4963715;28;20207;-76
2023/01/09 12:00:25;;;;;;;6.60;6.10;;;4.60;99.90;;;;;;4967024;28;20601;-76
2023/01/09 12:03:12;;;;;;;5.88;5.47;;;4.70;99.90;;;;;;4980891;28;20223;-75
2023/01/09 12:05:49;;;;;;;5.78;5.38;;;4.80;99.90;;;;;;4985459;28;20690;-76
2023/01/09 12:08:28;;;;;;;5.70;5.30;;;4.80;99.90;;;;;;4990218;28;20259;-75
2023/01/09 12:11:26;;;;;;;8.30;7.60;;;4.90;99.90;;;;;;4980858;28;20233;-78
2023/01/09 12:14:15;;;;;;;8.52;7.82;;;4.90;99.90;;;;;;4977146;28;20217;-76
2023/01/09 12:16:54;;;;;;;8.43;7.72;;;4.80;99.90;;;;;;4975308;28;20256;-76
2023/01/09 12:19:43;;;;;;;122.20;15.32;;;4.80;99.90;;;;;;4967792;28;20873;-75
2023/01/09 12:22:22;;;;;;;9.52;8.73;;;4.80;99.90;;;;;;4970988;28;20267;-77
2023/01/09 12:25:03;;;;;;;10.05;9.23;;;4.60;99.90;;;;;;4968065;28;20231;-76
2023/01/09 12:27:46;;;;;;;11.32;10.32;;;4.60;99.90;;;;;;4982386;28;20201;-77
2023/01/09 12:30:31;;;;;;;10.25;9.45;;;4.60;99.90;;;;;;4981109;28;20225;-75
2023/01/09 12:33:22;;;;;;;8.60;7.97;;;4.70;99.90;;;;;;4978980;28;20189;-74
2023/01/09 12:35:57;;;;;;;8.02;7.43;;;4.70;99.90;;;;;;4949876;28;20220;-75
2023/01/09 12:38:40;;;;;;;7.90;7.30;;;4.80;99.90;;;;;;4973650;28;20200;-74
2023/01/09 12:41:46;;;;;;;7.70;7.10;;;4.90;99.90;;;;;;4967888;28;20221;-75
2023/01/09 12:44:48;;;;;;;7.78;7.18;;;4.90;99.90;;;;;;4981548;28;20252;-75
2023/01/09 12:47:54;;;;;;;6.65;6.15;;;5.10;99.90;;;;;;4986117;28;20275;-74
2023/01/09 12:50:48;;;;;;;8.88;8.05;;;5.20;99.90;;;;;;4920686;29;20370;-74
2023/01/09 12:53:23;;;;;;;10.18;9.30;;;5.20;99.90;;;;;;4968345;28;20224;-75
2023/01/09 12:55:56;;;;;;;9.02;8.32;;;5.20;99.90;;;;;;4983969;28;20235;-75
2023/01/09 12:58:39;;;;;;;8.85;8.07;;;5.20;99.90;;;;;;4982115;28;20284;-75
2023/01/09 13:01:14;;;;;;;7.53;6.93;;;5.30;99.90;;;;;;4983689;28;20729;-75
2023/01/09 13:03:47;;;;;;;7.72;7.13;;;5.40;99.90;;;;;;4982110;28;20220;-74
2023/01/09 13:06:19;;;;;;;5.93;5.53;;;5.40;99.90;;;;;;4980999;28;20227;-76
2023/01/09 13:08:50;;;;;;;5.60;5.20;;;5.50;99.90;;;;;;4981655;28;20205;-76
2023/01/09 13:11:24;;;;;;;6.82;5.13;;;5.60;99.90;;;;;;4969436;28;20690;-75
2023/01/09 13:13:55;;;;;;;5.95;5.55;;;5.70;99.90;;;;;;4964783;28;20208;-76
2023/01/09 13:16:28;;;;;;;7.50;6.88;;;5.80;99.90;;;;;;4982694;28;20694;-77
2023/01/09 13:19:01;;;;;;;8.82;8.05;;;5.70;99.90;;;;;;4977590;28;20282;-74
2023/01/09 13:21:28;;;;;;;8.30;7.68;;;5.60;99.90;;;;;;4987143;28;20225;-72
2023/01/09 13:24:01;;;;;;;12.50;9.50;;;5.60;99.90;;;;;;4986031;28;20684;-73
2023/01/09 13:26:32;;;;;;;8.95;8.15;;;5.50;99.90;;;;;;4981302;28;20231;-75
2023/01/09 13:29:03;;;;;;;10.07;9.07;;;5.50;99.90;;;;;;4978532;28;20209;-75
2023/01/09 13:32:04;;;;;;;13.05;11.88;;;5.50;99.90;;;;;;4968080;28;20225;-77